E.r. Borneo — A8SZ4 — position and weather

sailwx.info

Track history (hours):
 
Tides and Currents Weather Stations Pressure Air Temp Water Temp Dewpoint Dewpoint Depression Visibility Wind Speed Wind Dir Waves Ship Positions

E.r. Borneo

Last reported at 2014-Dec-17 18:00 UTC. Time now 2014-Dec-17 23:19 UTC.
Position N 29°24' W 061°06'.

Length 292 m; draft 14.5 m.

Type: Cargo ship. MMSI: 636091797.

Wind from 180 at 7 knots

Barometer 1019.2 mb
Air temperature 23.0 ° C
Visibility: greater than 5.4 NM
Dewpoint 20.1 ° C

Date/timePositionNaut miles runAvg speedWind from/ knotsBaromVisibWave heightAir tempDewpointWater temp
2014-Dec-17 18:00N 29°24' W 061°06'59312.3 180 / 71019.2 5.4 23.020.1
2014-Dec-15 18:00N 34°36' W 071°00'31910.2 330 / 71017.0 5.4 16.012.3
2014-Dec-14 10:33N 37°55' W 076°09'1312.4
2014-Dec-14 09:32N 38°07' W 076°14'3913.0
2014-Dec-14 06:31N 38°45' W 076°26'1212.7
2014-Dec-14 05:34N 38°57' W 076°23'9 9.3
2014-Dec-14 04:34N 39°07' W 076°24'9 8.5
2014-Dec-14 03:33N 39°13' W 076°31'3 3.3
2014-Dec-14 02:33N 39°15' W 076°34'0 0.0
2014-Dec-14 01:30N 39°15' W 076°34'0 0.0
2014-Dec-14 00:33N 39°15' W 076°34'0 0.0
2014-Dec-13 23:33N 39°15' W 076°34'0 0.0
2014-Dec-13 22:33N 39°15' W 076°34'0 0.0
2014-Dec-13 21:33N 39°15' W 076°34'0 0.0
2014-Dec-13 20:33N 39°15' W 076°34'0 0.0
2014-Dec-13 19:33N 39°15' W 076°34'0 0.0
2014-Dec-13 18:33N 39°15' W 076°34'0 0.0
2014-Dec-13 17:33N 39°15' W 076°34'0 0.0
2014-Dec-13 16:33N 39°15' W 076°34'0 0.0
2014-Dec-13 15:33N 39°15' W 076°34'0 0.0
2014-Dec-13 14:30N 39°15' W 076°34'0 0.0
2014-Dec-13 13:33N 39°15' W 076°34'0 0.0
2014-Dec-13 12:33N 39°15' W 076°34'0 0.0
2014-Dec-13 11:30N 39°15' W 076°34'0 0.0
2014-Dec-13 10:33N 39°15' W 076°34'0 0.0
2014-Dec-13 09:33N 39°15' W 076°34'0 0.0
2014-Dec-13 08:33N 39°15' W 076°34'0 0.0
2014-Dec-13 07:33N 39°15' W 076°34'0 0.0
2014-Dec-13 06:33N 39°15' W 076°34'0 0.0
2014-Dec-13 05:33N 39°15' W 076°34'0 0.0
2014-Dec-13 04:33N 39°15' W 076°34'0 0.0
2014-Dec-13 03:33N 39°15' W 076°34'0 0.0
2014-Dec-13 02:33N 39°15' W 076°34'0 0.0
2014-Dec-13 01:33N 39°15' W 076°34'0 0.0
2014-Dec-13 00:33N 39°15' W 076°34'0 0.0
2014-Dec-12 23:33N 39°15' W 076°34'0 0.0
2014-Dec-12 22:33N 39°15' W 076°34'0 0.0
2014-Dec-12 21:33N 39°15' W 076°34'0 0.0
2014-Dec-12 20:33N 39°15' W 076°34'0 0.0
2014-Dec-12 19:33N 39°15' W 076°34'0 0.0
2014-Dec-12 18:33N 39°15' W 076°34'0 0.0
2014-Dec-12 17:33N 39°15' W 076°34'0 0.0
2014-Dec-12 16:33N 39°15' W 076°34'0 0.0
2014-Dec-12 15:33N 39°15' W 076°34'0 0.0
2014-Dec-12 14:33N 39°15' W 076°34'0 0.0
2014-Dec-12 13:33N 39°15' W 076°34'0 0.0
2014-Dec-12 12:33N 39°15' W 076°34'0 0.0
2014-Dec-12 11:33N 39°15' W 076°34'0 0.0
2014-Dec-12 10:33N 39°15' W 076°34'0 0.0
2014-Dec-12 09:33N 39°15' W 076°34'0 0.0
2014-Dec-12 08:34N 39°15' W 076°34'0 0.0
2014-Dec-12 07:33N 39°15' W 076°34'0 0.0
2014-Dec-12 06:33N 39°15' W 076°34'0 0.0
2014-Dec-12 05:33N 39°15' W 076°34'0 0.0
2014-Dec-12 04:33N 39°15' W 076°34'0 0.0
2014-Dec-12 03:33N 39°15' W 076°34'0 0.0
2014-Dec-12 02:33N 39°15' W 076°34'0 0.0
2014-Dec-12 01:30N 39°15' W 076°34'0 0.0
2014-Dec-12 00:33N 39°15' W 076°34'0 0.0
2014-Dec-11 23:33N 39°15' W 076°34'0 0.0
2014-Dec-11 22:33N 39°15' W 076°34'0 0.0
2014-Dec-11 21:33N 39°15' W 076°34'0 0.0
2014-Dec-11 20:33N 39°15' W 076°34'0 0.0
2014-Dec-11 19:33N 39°15' W 076°34'0 0.0
2014-Dec-11 18:33N 39°15' W 076°34'0 0.0
2014-Dec-11 17:33N 39°15' W 076°34'0 0.0
2014-Dec-11 16:33N 39°15' W 076°34'0 0.0
2014-Dec-11 15:33N 39°15' W 076°34'0 0.0
2014-Dec-11 14:33N 39°15' W 076°34'0 0.0
2014-Dec-11 13:33N 39°15' W 076°34'0 0.0
2014-Dec-11 12:33N 39°15' W 076°34'1 0.9
2014-Dec-11 11:33N 39°15' W 076°33'8 7.9
2014-Dec-11 10:33N 39°10' W 076°25'1110.7
2014-Dec-11 09:33N 38°59' W 076°23'1313.5
2014-Dec-11 08:34N 38°46' W 076°26'4012.1
2014-Dec-11 05:16N 38°07' W 076°13'1013.5
2014-Dec-11 04:33N 37°58' W 076°11'317 9.2
2014-Dec-09 18:00N 37°06' W 069°36'   180 / 321004.0 5.4 20.118.4
Track history (hours):
 
Tides and Currents Weather Stations Pressure Air Temp Water Temp Dewpoint Dewpoint Depression Visibility Wind Speed Wind Dir Waves Ship Positions

E.r. Borneo

Last reported at 2014-Dec-17 18:00 UTC. Time now 2014-Dec-17 23:19 UTC.
Position N 29°24' W 061°06'.

Length 292 m; draft 14.5 m.

Type: Cargo ship. MMSI: 636091797.

Wind from 180 at 7 knots

Barometer 1019.2 mb
Air temperature 23.0 ° C
Visibility: greater than 5.4 NM
Dewpoint 20.1 ° C

Date/timePositionNaut miles runAvg speedWind from/ knotsBaromVisibWave heightAir tempDewpointWater temp
2014-Dec-17 18:00N 29°24' W 061°06'59312.3 180 / 71019.2 5.4 23.020.1
2014-Dec-15 18:00N 34°36' W 071°00'31910.2 330 / 71017.0 5.4 16.012.3
2014-Dec-14 10:33N 37°55' W 076°09'1312.4
2014-Dec-14 09:32N 38°07' W 076°14'3913.0
2014-Dec-14 06:31N 38°45' W 076°26'1212.7
2014-Dec-14 05:34N 38°57' W 076°23'9 9.3
2014-Dec-14 04:34N 39°07' W 076°24'9 8.5
2014-Dec-14 03:33N 39°13' W 076°31'3 3.3
2014-Dec-14 02:33N 39°15' W 076°34'0 0.0
2014-Dec-14 01:30N 39°15' W 076°34'0 0.0
2014-Dec-14 00:33N 39°15' W 076°34'0 0.0
2014-Dec-13 23:33N 39°15' W 076°34'0 0.0
2014-Dec-13 22:33N 39°15' W 076°34'0 0.0
2014-Dec-13 21:33N 39°15' W 076°34'0 0.0
2014-Dec-13 20:33N 39°15' W 076°34'0 0.0
2014-Dec-13 19:33N 39°15' W 076°34'0 0.0
2014-Dec-13 18:33N 39°15' W 076°34'0 0.0
2014-Dec-13 17:33N 39°15' W 076°34'0 0.0
2014-Dec-13 16:33N 39°15' W 076°34'0 0.0
2014-Dec-13 15:33N 39°15' W 076°34'0 0.0
2014-Dec-13 14:30N 39°15' W 076°34'0 0.0
2014-Dec-13 13:33N 39°15' W 076°34'0 0.0
2014-Dec-13 12:33N 39°15' W 076°34'0 0.0
2014-Dec-13 11:30N 39°15' W 076°34'0 0.0
2014-Dec-13 10:33N 39°15' W 076°34'0 0.0
2014-Dec-13 09:33N 39°15' W 076°34'0 0.0
2014-Dec-13 08:33N 39°15' W 076°34'0 0.0
2014-Dec-13 07:33N 39°15' W 076°34'0 0.0
2014-Dec-13 06:33N 39°15' W 076°34'0 0.0
2014-Dec-13 05:33N 39°15' W 076°34'0 0.0
2014-Dec-13 04:33N 39°15' W 076°34'0 0.0
2014-Dec-13 03:33N 39°15' W 076°34'0 0.0
2014-Dec-13 02:33N 39°15' W 076°34'0 0.0
2014-Dec-13 01:33N 39°15' W 076°34'0 0.0
2014-Dec-13 00:33N 39°15' W 076°34'0 0.0
2014-Dec-12 23:33N 39°15' W 076°34'0 0.0
2014-Dec-12 22:33N 39°15' W 076°34'0 0.0
2014-Dec-12 21:33N 39°15' W 076°34'0 0.0
2014-Dec-12 20:33N 39°15' W 076°34'0 0.0
2014-Dec-12 19:33N 39°15' W 076°34'0 0.0
2014-Dec-12 18:33N 39°15' W 076°34'0 0.0
2014-Dec-12 17:33N 39°15' W 076°34'0 0.0
2014-Dec-12 16:33N 39°15' W 076°34'0 0.0
2014-Dec-12 15:33N 39°15' W 076°34'0 0.0
2014-Dec-12 14:33N 39°15' W 076°34'0 0.0
2014-Dec-12 13:33N 39°15' W 076°34'0 0.0
2014-Dec-12 12:33N 39°15' W 076°34'0 0.0
2014-Dec-12 11:33N 39°15' W 076°34'0 0.0
2014-Dec-12 10:33N 39°15' W 076°34'0 0.0
2014-Dec-12 09:33N 39°15' W 076°34'0 0.0
2014-Dec-12 08:34N 39°15' W 076°34'0 0.0
2014-Dec-12 07:33N 39°15' W 076°34'0 0.0
2014-Dec-12 06:33N 39°15' W 076°34'0 0.0
2014-Dec-12 05:33N 39°15' W 076°34'0 0.0
2014-Dec-12 04:33N 39°15' W 076°34'0 0.0
2014-Dec-12 03:33N 39°15' W 076°34'0 0.0
2014-Dec-12 02:33N 39°15' W 076°34'0 0.0
2014-Dec-12 01:30N 39°15' W 076°34'0 0.0
2014-Dec-12 00:33N 39°15' W 076°34'0 0.0
2014-Dec-11 23:33N 39°15' W 076°34'0 0.0
2014-Dec-11 22:33N 39°15' W 076°34'0 0.0
2014-Dec-11 21:33N 39°15' W 076°34'0 0.0
2014-Dec-11 20:33N 39°15' W 076°34'0 0.0
2014-Dec-11 19:33N 39°15' W 076°34'0 0.0
2014-Dec-11 18:33N 39°15' W 076°34'0 0.0
2014-Dec-11 17:33N 39°15' W 076°34'0 0.0
2014-Dec-11 16:33N 39°15' W 076°34'0 0.0
2014-Dec-11 15:33N 39°15' W 076°34'0 0.0
2014-Dec-11 14:33N 39°15' W 076°34'0 0.0
2014-Dec-11 13:33N 39°15' W 076°34'0 0.0
2014-Dec-11 12:33N 39°15' W 076°34'1 0.9
2014-Dec-11 11:33N 39°15' W 076°33'8 7.9
2014-Dec-11 10:33N 39°10' W 076°25'1110.7
2014-Dec-11 09:33N 38°59' W 076°23'1313.5
2014-Dec-11 08:34N 38°46' W 076°26'4012.1
2014-Dec-11 05:16N 38°07' W 076°13'1013.5
2014-Dec-11 04:33N 37°58' W 076°11'317 9.2
2014-Dec-09 18:00N 37°06' W 069°36'   180 / 321004.0 5.4 20.118.4

Dump ship's entire track history